Time;durP1;ratioP1;P1;durP2;ratioP2;P2;SDS_P1;SDS_P2;PMS_P1;PMS_P2;Temp;Humidity;BMP_temperature;BMP_pressure;BME280_temperature;BME280_humidity;BME280_pressure;Samples;Min_cycle;Max_cycle;Signal;HPM_P1;HPM_P2
2022/07/27 00:00:11;;;;;;;;;;;;;;;21.63;47.94;99751.34;1083746;54;20054;-75
2022/07/27 00:01:18;;;;;;;;;;;;;;;21.65;47.62;99752.78;1083482;54;19946;-75
2022/07/27 00:02:19;;;;;;;;;;;;;;;21.61;47.96;99759.75;1083952;54;19957;-75
2022/07/27 00:03:22;;;;;;;;;;;;;;;21.60;47.94;99752.63;1084475;54;19946;-75
2022/07/27 00:04:23;;;;;;;;;;;;;;;21.52;48.00;99750.19;1084720;54;19947;-74
2022/07/27 00:05:27;;;;;;;;;;;;;;;21.45;48.41;99755.69;1084602;54;19951;-75
2022/07/27 00:06:28;;;;;;;;;;;;;;;21.39;48.91;99751.13;1085129;54;19947;-76
2022/07/27 00:07:32;;;;;;;;;;;;;;;21.31;48.96;99744.09;1085291;54;19952;-75
2022/07/27 00:08:33;;;;;;;;;;;;;;;21.26;48.75;99751.25;1085448;39;20329;-74
2022/07/27 00:09:37;;;;;;;;;;;;;;;21.31;48.47;99745.97;1085376;54;20541;-75
2022/07/27 00:10:38;;;;;;;;;;;;;;;21.22;49.34;99748.16;1085098;54;19961;-76
2022/07/27 00:11:42;;;;;;;;;;;;;;;21.26;48.59;99749.34;1085444;54;19973;-75
2022/07/27 00:12:43;;;;;;;;;;;;;;;21.29;48.79;99751.63;1085349;54;19946;-77
2022/07/27 00:13:47;;;;;;;;;;;;;;;21.31;49.17;99748.69;1085231;54;20023;-75
2022/07/27 00:14:50;;;;;;;;;;;;;;;21.26;49.21;99749.34;1084921;54;19950;-75
2022/07/27 00:15:51;;;;;;;;;;;;;;;21.33;48.58;99744.72;1085155;54;19938;-74
2022/07/27 00:16:58;;;;;;;;;;;;;;;21.37;48.55;99755.13;1085304;39;20338;-76
2022/07/27 00:17:59;;;;;;;;;;;;;;;21.40;48.65;99751.97;1084259;54;19946;-76
2022/07/27 00:19:03;;;;;;;;;;;;;;;21.43;48.32;99756.97;1083964;54;19963;-76
2022/07/27 00:20:05;;;;;;;;;;;;;;;21.46;48.37;99761.94;1084324;54;19947;-75
2022/07/27 00:22:12;;;;;;;;;;;;;;;21.42;48.89;99760.72;1084321;54;20544;-77
2022/07/27 00:23:13;;;;;;;;;;;;;;;21.32;49.00;99751.19;1084748;54;19953;-76
2022/07/27 00:24:17;;;;;;;;;;;;;;;21.30;48.91;99758.72;1084527;54;19946;-77
2022/07/27 00:25:18;;;;;;;;;;;;;;;21.28;49.07;99754.59;1083853;54;19989;-77
2022/07/27 00:26:22;;;;;;;;;;;;;;;21.24;49.16;99759.63;1083631;54;20034;-77
2022/07/27 00:27:23;;;;;;;;;;;;;;;21.23;49.25;99757.97;1083953;54;19973;-77
2022/07/27 00:28:27;;;;;;;;;;;;;;;21.26;49.36;99757.50;1084007;54;19962;-77
2022/07/27 00:29:28;;;;;;;;;;;;;;;21.28;49.24;99755.41;1083717;54;19942;-76
2022/07/27 00:30:32;;;;;;;;;;;;;;;21.23;49.81;99763.41;1083109;54;19966;-77
2022/07/27 00:31:33;;;;;;;;;;;;;;;21.25;49.63;99757.72;1083582;54;19970;-77
2022/07/27 00:32:39;;;;;;;;;;;;;;;21.24;49.39;99756.06;1082915;54;19961;-76
2022/07/27 00:33:40;;;;;;;;;;;;;;;21.27;49.37;99756.44;1082987;54;19939;-77
2022/07/27 00:34:44;;;;;;;;;;;;;;;21.27;49.41;99752.91;1083041;54;19969;-77
2022/07/27 00:35:45;;;;;;;;;;;;;;;21.22;49.64;99756.31;1082830;54;19950;-76
2022/07/27 00:36:49;;;;;;;;;;;;;;;21.27;49.18;99756.44;1082186;54;19954;-76
2022/07/27 00:37:50;;;;;;;;;;;;;;;21.30;49.40;99753.28;1082619;54;19974;-77
2022/07/27 00:38:54;;;;;;;;;;;;;;;21.27;49.95;99761.06;1082567;54;19977;-77
2022/07/27 00:39:55;;;;;;;;;;;;;;;21.26;49.63;99757.50;1082329;54;20030;-77
2022/07/27 00:40:59;;;;;;;;;;;;;;;21.22;49.89;99758.16;1083020;39;20443;-76
2022/07/27 00:42:00;;;;;;;;;;;;;;;21.13;50.14;99757.63;1082239;54;19946;-76
2022/07/27 00:43:04;;;;;;;;;;;;;;;21.12;50.49;99764.94;1082447;54;19971;-76
2022/07/27 00:44:08;;;;;;;;;;;;;;;20.99;51.03;99756.91;1082446;54;19970;-77
2022/07/27 00:45:16;;;;;;;;;;;;;;;21.01;50.62;99761.06;1083371;54;19984;-77
2022/07/27 00:46:19;;;;;;;;;;;;;;;20.99;50.96;99757.72;1085574;54;19947;-76
2022/07/27 00:47:21;;;;;;;;;;;;;;;20.99;51.24;99752.28;1086433;54;19939;-76
2022/07/27 00:48:27;;;;;;;;;;;;;;;21.06;50.41;99757.69;1086353;54;19947;-76
2022/07/27 00:49:29;;;;;;;;;;;;;;;20.98;50.77;99756.06;1086987;54;19938;-76
2022/07/27 00:50:39;;;;;;;;;;;;;;;20.98;50.84;99745.19;1087080;54;19975;-77
2022/07/27 00:51:43;;;;;;;;;;;;;;;20.89;51.11;99738.34;1086925;54;19951;-76
2022/07/27 00:52:45;;;;;;;;;;;;;;;20.92;51.29;99750.69;1087773;46;19943;-76
2022/07/27 00:53:50;;;;;;;;;;;;;;;20.84;51.37;99751.78;1086746;46;19950;-77
2022/07/27 00:54:51;;;;;;;;;;;;;;;20.88;51.11;99756.56;1085849;54;19973;-76
2022/07/27 00:55:55;;;;;;;;;;;;;;;20.85;50.98;99748.84;1083230;54;20540;-77
2022/07/27 00:56:56;;;;;;;;;;;;;;;20.85;50.96;99756.16;1082787;54;19946;-76
2022/07/27 00:58:00;;;;;;;;;;;;;;;20.82;51.25;99743.00;1083015;54;20437;-76
2022/07/27 00:59:01;;;;;;;;;;;;;;;20.72;51.76;99755.16;1082705;54;19969;-77
2022/07/27 01:00:06;;;;;;;;;;;;;;;20.64;51.69;99755.44;1082690;54;19946;-76
2022/07/27 01:01:07;;;;;;;;;;;;;;;20.61;51.94;99755.84;1082436;54;19946;-76
2022/07/27 01:02:11;;;;;;;;;;;;;;;20.64;52.13;99760.03;1082942;54;19953;-77
2022/07/27 01:03:12;;;;;;;;;;;;;;;20.67;51.95;99756.88;1082660;54;19946;-76
2022/07/27 01:04:18;;;;;;;;;;;;;;;20.68;51.88;99762.09;1082932;54;19946;-76
2022/07/27 01:05:19;;;;;;;;;;;;;;;20.78;51.13;99756.19;1082955;54;19946;-76
2022/07/27 01:06:24;;;;;;;;;;;;;;;20.80;51.42;99753.25;1082819;54;19958;-77
2022/07/27 01:07:25;;;;;;;;;;;;;;;20.85;51.32;99753.44;1082763;54;19947;-76
2022/07/27 01:08:29;;;;;;;;;;;;;;;20.82;51.39;99756.59;1082856;54;19954;-76
2022/07/27 01:10:50;;;;;;;;;;;;;;;20.80;51.39;99758.69;1082648;54;20529;-76
2022/07/27 01:11:51;;;;;;;;;;;;;;;20.80;51.45;99758.69;1082840;54;19969;-75
2022/07/27 01:12:55;;;;;;;;;;;;;;;20.78;51.13;99753.50;1083185;54;19982;-76
2022/07/27 01:13:56;;;;;;;;;;;;;;;20.66;51.70;99752.47;1082996;54;19945;-76
2022/07/27 01:15:00;;;;;;;;;;;;;;;20.64;51.88;99758.13;1083291;54;20437;-76
2022/07/27 01:16:03;;;;;;;;;;;;;;;20.65;51.67;99753.53;1083103;54;19982;-75
2022/07/27 01:17:07;;;;;;;;;;;;;;;20.60;51.79;99747.94;1083263;54;19946;-76
2022/07/27 01:18:10;;;;;;;;;;;;;;;20.64;51.92;99743.75;1083610;39;20377;-76
2022/07/27 01:19:14;;;;;;;;;;;;;;;20.56;51.95;99748.38;1083403;54;20042;-76
2022/07/27 01:20:20;;;;;;;;;;;;;;;20.60;51.89;99750.66;1082892;54;19946;-76
2022/07/27 01:21:21;;;;;;;;;;;;;;;20.57;51.98;99750.03;1083783;54;19946;-76
2022/07/27 01:22:28;;;;;;;;;;;;;;;20.54;52.31;99747.78;1083954;54;19947;-76
2022/07/27 01:23:31;;;;;;;;;;;;;;;20.50;52.16;99745.72;1084178;54;19946;-76
2022/07/27 01:24:35;;;;;;;;;;;;;;;20.49;52.00;99753.00;1085224;47;20471;-76
2022/07/27 01:25:36;;;;;;;;;;;;;;;20.47;52.36;99743.41;1085081;46;19947;-76
2022/07/27 01:26:40;;;;;;;;;;;;;;;20.50;52.00;99753.84;1084445;54;19954;-76
2022/07/27 01:27:44;;;;;;;;;;;;;;;20.53;52.34;99747.97;1084166;54;19950;-77
2022/07/27 01:28:45;;;;;;;;;;;;;;;20.48;52.01;99745.91;1084247;54;19954;-77
2022/07/27 01:29:49;;;;;;;;;;;;;;;20.46;52.34;99748.00;1084439;54;20433;-78
2022/07/27 01:30:50;;;;;;;;;;;;;;;20.44;52.33;99747.41;1084196;47;20444;-77
2022/07/27 01:31:53;;;;;;;;;;;;;;;20.44;52.47;99755.56;1083994;54;19954;-77
2022/07/27 01:33:07;;;;;;;;;;;;;;;20.42;52.28;99746.78;1083485;54;19938;-77
2022/07/27 01:34:08;;;;;;;;;;;;;;;20.42;52.33;99742.16;1082988;54;19946;-77
2022/07/27 01:35:12;;;;;;;;;;;;;;;20.36;52.77;99740.34;1083170;54;19977;-77
2022/07/27 01:36:16;;;;;;;;;;;;;;;20.39;52.74;99739.06;1083259;54;19953;-77
2022/07/27 01:37:17;;;;;;;;;;;;;;;20.38;52.78;99734.69;1083489;54;19979;-77
2022/07/27 01:38:24;;;;;;;;;;;;;;;20.38;52.77;99730.09;1083781;39;20364;-77
2022/07/27 01:39:25;;;;;;;;;;;;;;;20.42;52.40;99725.06;1082894;54;19958;-76
2022/07/27 01:40:29;;;;;;;;;;;;;;;20.36;52.60;99725.91;1083038;54;20038;-76
2022/07/27 01:41:30;;;;;;;;;;;;;;;20.35;52.87;99735.13;1083124;54;19958;-77
2022/07/27 01:42:34;;;;;;;;;;;;;;;20.37;52.79;99727.59;1083057;54;20050;-76
2022/07/27 01:43:35;;;;;;;;;;;;;;;20.33;52.55;99721.75;1083642;39;20400;-76
2022/07/27 01:44:39;;;;;;;;;;;;;;;20.33;52.61;99732.63;1082901;54;19953;-76
2022/07/27 01:45:40;;;;;;;;;;;;;;;20.39;52.44;99737.19;1082579;54;19954;-78
2022/07/27 01:46:44;;;;;;;;;;;;;;;20.46;52.62;99730.88;1083530;39;20691;-76
2022/07/27 01:47:45;;;;;;;;;;;;;;;20.53;52.47;99734.38;1083568;54;19946;-76
2022/07/27 01:48:48;;;;;;;;;;;;;;;20.58;52.13;99745.44;1083639;54;19947;-75
2022/07/27 01:49:49;;;;;;;;;;;;;;;20.68;51.81;99739.53;1083287;54;19946;-76
2022/07/27 01:50:53;;;;;;;;;;;;;;;20.67;51.56;99733.28;1083243;54;20058;-76
2022/07/27 01:51:54;;;;;;;;;;;;;;;20.72;51.60;99747.00;1083758;39;20333;-76
2022/07/27 01:52:58;;;;;;;;;;;;;;;20.71;51.93;99747.25;1083648;54;20030;-76
2022/07/27 01:54:02;;;;;;;;;;;;;;;20.72;51.42;99741.59;1083574;54;19974;-76
2022/07/27 01:55:06;;;;;;;;;;;;;;;20.72;51.52;99747.00;1083181;54;19953;-76
2022/07/27 01:56:08;;;;;;;;;;;;;;;20.71;51.85;99745.34;1083631;54;20055;-76
2022/07/27 01:57:12;;;;;;;;;;;;;;;20.72;51.61;99749.72;1083370;54;20050;-76
2022/07/27 01:58:13;;;;;;;;;;;;;;;20.72;51.85;99744.28;1083765;54;19947;-77
2022/07/27 01:59:17;;;;;;;;;;;;;;;20.67;52.20;99744.13;1083422;54;19951;-77
2022/07/27 02:00:18;;;;;;;;;;;;;;;20.65;52.28;99735.38;1082954;54;19954;-77
2022/07/27 02:01:22;;;;;;;;;;;;;;;20.68;52.08;99745.81;1083560;54;20441;-77
2022/07/27 02:02:23;;;;;;;;;;;;;;;20.66;51.97;99731.59;1082698;54;19947;-77
2022/07/27 02:03:27;;;;;;;;;;;;;;;20.61;52.44;99727.88;1082921;54;19973;-77
2022/07/27 02:04:28;;;;;;;;;;;;;;;20.59;52.30;99730.81;1082865;54;19946;-77
2022/07/27 02:05:31;;;;;;;;;;;;;;;20.65;52.06;99731.81;1083327;54;19969;-77
2022/07/27 02:06:33;;;;;;;;;;;;;;;20.68;51.90;99734.94;1083355;54;19947;-77
2022/07/27 02:07:36;;;;;;;;;;;;;;;20.74;51.91;99727.81;1083479;54;19947;-77
2022/07/27 02:08:38;;;;;;;;;;;;;;;20.80;51.55;99732.38;1083544;54;19973;-78
2022/07/27 02:09:45;;;;;;;;;;;;;;;20.74;52.06;99727.81;1084173;54;19939;-78
2022/07/27 02:13:18;;;;;;;;;;;;;;;20.64;52.08;99717.41;1083682;54;19958;-77
2022/07/27 02:14:22;;;;;;;;;;;;;;;20.60;52.32;99716.16;1083515;54;19950;-77
2022/07/27 02:15:25;;;;;;;;;;;;;;;20.53;52.14;99712.66;1083894;54;20081;-78
2022/07/27 02:16:28;;;;;;;;;;;;;;;20.55;52.34;99722.25;1083831;54;19946;-77
2022/07/27 02:17:29;;;;;;;;;;;;;;;20.51;52.20;99714.75;1083472;54;20500;-77
2022/07/27 02:18:33;;;;;;;;;;;;;;;20.54;52.25;99711.63;1083224;47;20532;-78
2022/07/27 02:19:34;;;;;;;;;;;;;;;20.57;52.30;99716.63;1083727;54;19946;-78
2022/07/27 02:20:41;;;;;;;;;;;;;;;20.61;52.13;99706.16;1083328;39;20376;-77
2022/07/27 02:21:42;;;;;;;;;;;;;;;20.59;52.82;99717.25;1082664;54;19951;-77
2022/07/27 02:22:46;;;;;;;;;;;;;;;20.60;52.73;99709.91;1083825;47;20452;-78
2022/07/27 02:23:47;;;;;;;;;;;;;;;20.60;52.95;99716.16;1083866;54;19954;-78
2022/07/27 02:24:54;;;;;;;;;;;;;;;20.58;52.98;99707.44;1083791;54;20447;-78
2022/07/27 02:25:55;;;;;;;;;;;;;;;20.53;53.33;99710.81;1083701;54;19966;-77
2022/07/27 02:26:58;;;;;;;;;;;;;;;20.49;53.41;99708.75;1083842;54;19942;-77
2022/07/27 02:27:59;;;;;;;;;;;;;;;20.46;53.62;99714.59;1083754;54;19954;-78
2022/07/27 02:29:04;;;;;;;;;;;;;;;20.45;53.21;99707.50;1083838;54;19943;-77
2022/07/27 02:30:06;;;;;;;;;;;;;;;20.48;53.09;99707.06;1084088;39;20318;-77
2022/07/27 02:31:09;;;;;;;;;;;;;;;20.51;53.29;99712.06;1083138;54;19986;-78
2022/07/27 02:32:11;;;;;;;;;;;;;;;20.47;53.13;99708.13;1083687;54;20425;-77
2022/07/27 02:33:15;;;;;;;;;;;;;;;20.49;53.07;99708.75;1084243;31;20405;-76
2022/07/27 02:34:17;;;;;;;;;;;;;;;20.54;52.64;99701.63;1083676;54;19973;-78
2022/07/27 02:35:20;;;;;;;;;;;;;;;20.61;52.49;99700.72;1083532;54;19947;-76
2022/07/27 02:36:22;;;;;;;;;;;;;;;20.66;52.61;99699.03;1083532;39;20407;-77
2022/07/27 02:37:25;;;;;;;;;;;;;;;20.60;52.87;99699.88;1084587;54;19958;-79
2022/07/27 02:38:27;;;;;;;;;;;;;;;20.60;52.88;99705.31;1084132;54;19946;-79
2022/07/27 02:39:30;;;;;;;;;;;;;;;20.62;52.87;99700.50;1083409;54;19947;-78
2022/07/27 02:40:34;;;;;;;;;;;;;;;20.66;52.68;99703.59;1083806;54;19947;-78
2022/07/27 02:41:38;;;;;;;;;;;;;;;20.60;53.05;99702.59;1084185;39;20314;-79
2022/07/27 02:42:39;;;;;;;;;;;;;;;20.50;53.22;99702.28;1084339;54;19950;-80
2022/07/27 02:43:43;;;;;;;;;;;;;;;20.36;53.22;99705.06;1083855;54;19939;-79
2022/07/27 02:44:44;;;;;;;;;;;;;;;20.36;53.47;99710.47;1084351;54;19957;-79
2022/07/27 02:45:47;;;;;;;;;;;;;;;20.31;53.46;99710.28;1083979;54;19950;-78
2022/07/27 02:46:48;;;;;;;;;;;;;;;20.24;53.60;99713.06;1084566;54;19970;-78
2022/07/27 02:47:52;;;;;;;;;;;;;;;20.16;53.66;99704.31;1084451;54;19961;-79
2022/07/27 02:48:53;;;;;;;;;;;;;;;20.13;53.60;99702.03;1084839;39;20338;-78
2022/07/27 02:49:57;;;;;;;;;;;;;;;20.07;53.77;99701.84;1084640;54;20475;-79
2022/07/27 02:50:59;;;;;;;;;;;;;;;20.05;54.02;99709.38;1084225;54;19946;-78
2022/07/27 02:52:03;;;;;;;;;;;;;;;20.10;53.79;99706.84;1084266;54;19947;-79
2022/07/27 02:53:04;;;;;;;;;;;;;;;20.19;53.16;99712.84;1084314;54;20452;-79
2022/07/27 02:54:08;;;;;;;;;;;;;;;20.24;53.44;99720.34;1084430;54;19939;-79
2022/07/27 02:55:09;;;;;;;;;;;;;;;20.30;52.99;99729.50;1084085;54;20034;-79
2022/07/27 02:56:15;;;;;;;;;;;;;;;20.30;52.81;99727.66;1083942;54;20079;-78
2022/07/27 02:57:16;;;;;;;;;;;;;;;20.25;53.09;99724.72;1083891;54;20456;-79
2022/07/27 02:58:20;;;;;;;;;;;;;;;20.25;53.17;99724.72;1084135;54;19969;-78
2022/07/27 02:59:21;;;;;;;;;;;;;;;20.18;53.41;99718.50;1084080;54;19951;-78
2022/07/27 03:00:25;;;;;;;;;;;;;;;20.22;52.95;99723.28;1084165;54;19947;-79
2022/07/27 03:01:26;;;;;;;;;;;;;;;20.21;53.22;99721.63;1084292;54;19946;-78
2022/07/27 03:02:30;;;;;;;;;;;;;;;20.22;52.98;99726.00;1084461;54;20639;-78
2022/07/27 03:03:31;;;;;;;;;;;;;;;20.18;53.58;99718.50;1084312;54;19943;-78
2022/07/27 03:04:35;;;;;;;;;;;;;;;20.16;53.25;99723.31;1084384;54;19953;-79
2022/07/27 03:05:36;;;;;;;;;;;;;;;20.15;53.67;99722.50;1084210;54;19970;-78
2022/07/27 03:06:40;;;;;;;;;;;;;;;20.09;53.80;99723.34;1084340;54;19938;-79
2022/07/27 03:07:41;;;;;;;;;;;;;;;20.06;54.21;99723.78;1084575;54;19962;-78
2022/07/27 03:08:45;;;;;;;;;;;;;;;20.04;54.08;99723.97;1084302;54;19981;-79
2022/07/27 03:09:47;;;;;;;;;;;;;;;20.04;54.00;99718.56;1084392;54;19969;-79
2022/07/27 03:10:50;;;;;;;;;;;;;;;19.99;54.38;99715.66;1084387;54;19946;-80
2022/07/27 03:11:54;;;;;;;;;;;;;;;20.00;54.32;99716.50;1084073;54;19962;-78
2022/07/27 03:12:58;;;;;;;;;;;;;;;19.99;54.60;99721.09;1084427;54;19954;-79
2022/07/27 03:13:59;;;;;;;;;;;;;;;20.00;54.50;99711.06;1083730;54;19969;-78
2022/07/27 03:15:03;;;;;;;;;;;;;;;19.94;54.55;99723.59;1083467;54;19969;-78
2022/07/27 03:16:07;;;;;;;;;;;;;;;19.92;54.55;99726.53;1084568;39;20376;-79
2022/07/27 03:17:08;;;;;;;;;;;;;;;19.91;54.64;99719.44;1084281;54;19947;-79
2022/07/27 03:18:12;;;;;;;;;;;;;;;19.95;54.17;99723.41;1084314;54;19947;-78
2022/07/27 03:19:13;;;;;;;;;;;;;;;19.90;54.53;99725.09;1084473;54;19946;-79
2022/07/27 03:20:17;;;;;;;;;;;;;;;19.85;54.74;99724.84;1084691;39;20551;-78
2022/07/27 03:21:18;;;;;;;;;;;;;;;19.82;55.06;99731.53;1084528;54;19946;-79
2022/07/27 03:22:22;;;;;;;;;;;;;;;19.78;54.85;99728.44;1083777;54;19953;-79
2022/07/27 03:23:23;;;;;;;;;;;;;;;19.77;55.25;99725.94;1084394;54;19946;-79
2022/07/27 03:24:27;;;;;;;;;;;;;;;19.81;54.75;99732.59;1083983;54;19947;-79
2022/07/27 03:25:30;;;;;;;;;;;;;;;19.86;54.69;99732.81;1085848;39;20334;-79
2022/07/27 03:26:32;;;;;;;;;;;;;;;19.79;55.16;99737.38;1084814;54;19947;-78
2022/07/27 03:27:38;;;;;;;;;;;;;;;19.80;55.35;99736.34;1084571;54;19973;-78
2022/07/27 03:28:39;;;;;;;;;;;;;;;19.78;55.33;99735.75;1084280;54;19969;-79
2022/07/27 03:29:43;;;;;;;;;;;;;;;19.83;55.25;99737.81;1086242;39;20726;-78
2022/07/27 03:30:44;;;;;;;;;;;;;;;19.80;55.42;99734.47;1083951;54;19939;-78
2022/07/27 03:31:48;;;;;;;;;;;;;;;19.82;55.25;99742.41;1083725;54;20508;-79
2022/07/27 03:32:49;;;;;;;;;;;;;;;19.76;55.75;99735.94;1083824;54;19958;-78
2022/07/27 03:33:53;;;;;;;;;;;;;;;19.78;55.49;99733.84;1084231;54;20430;-78
2022/07/27 03:34:54;;;;;;;;;;;;;;;19.76;55.92;99737.84;1084427;54;19958;-79
2022/07/27 03:35:57;;;;;;;;;;;;;;;19.79;55.68;99732.81;1085239;39;20344;-79
2022/07/27 03:37:01;;;;;;;;;;;;;;;19.83;55.29;99737.81;1085059;54;19966;-79
2022/07/27 03:38:02;;;;;;;;;;;;;;;19.81;55.33;99738.00;1084692;54;19946;-78
2022/07/27 03:39:06;;;;;;;;;;;;;;;19.86;55.44;99742.81;1085231;39;20381;-78
2022/07/27 03:40:08;;;;;;;;;;;;;;;19.84;55.39;99744.91;1084644;54;19954;-79
2022/07/27 03:41:12;;;;;;;;;;;;;;;19.87;55.21;99747.22;1084600;54;19978;-79
2022/07/27 03:42:13;;;;;;;;;;;;;;;19.87;55.48;99745.34;1084393;54;19946;-79
2022/07/27 03:43:19;;;;;;;;;;;;;;;19.89;55.38;99739.69;1084654;54;19974;-78
2022/07/27 03:44:21;;;;;;;;;;;;;;;19.91;54.96;99734.91;1084367;54;19939;-78
2022/07/27 03:45:24;;;;;;;;;;;;;;;19.94;55.00;99734.44;1084180;46;19953;-78
2022/07/27 03:46:25;;;;;;;;;;;;;;;19.94;54.99;99738.00;1084404;54;19946;-79
2022/07/27 03:47:29;;;;;;;;;;;;;;;19.86;55.22;99734.69;1084536;54;20413;-79
2022/07/27 03:48:33;;;;;;;;;;;;;;;19.83;54.99;99726.97;1084508;54;19953;-78
2022/07/27 03:49:34;;;;;;;;;;;;;;;19.69;55.69;99729.72;1084136;54;19989;-79
2022/07/27 03:50:38;;;;;;;;;;;;;;;19.70;55.65;99730.53;1084559;54;19946;-79
2022/07/27 03:51:39;;;;;;;;;;;;;;;19.71;55.51;99733.03;1084221;54;19973;-79
2022/07/27 03:52:43;;;;;;;;;;;;;;;19.76;54.94;99735.94;1084564;54;19954;-78
2022/07/27 03:53:44;;;;;;;;;;;;;;;19.73;55.03;99732.81;1084904;54;19957;-79
2022/07/27 03:54:49;;;;;;;;;;;;;;;19.65;55.55;99742.00;1084845;39;20353;-78
2022/07/27 03:55:50;;;;;;;;;;;;;;;19.61;55.58;99740.78;1084406;54;19981;-79
2022/07/27 03:56:54;;;;;;;;;;;;;;;19.58;55.70;99746.63;1084693;54;20002;-79
2022/07/27 03:57:55;;;;;;;;;;;;;;;19.54;55.67;99739.97;1084327;54;19946;-78
2022/07/27 03:59:01;;;;;;;;;;;;;;;19.64;55.46;99743.09;1084410;39;20450;-77
2022/07/27 04:00:03;;;;;;;;;;;;;;;19.67;55.43;99749.94;1084554;54;19950;-78
2022/07/27 04:01:07;;;;;;;;;;;;;;;19.74;54.79;99743.44;1085045;54;20006;-78
2022/07/27 04:02:08;;;;;;;;;;;;;;;19.75;54.87;99747.81;1084918;54;19939;-77
2022/07/27 04:03:12;;;;;;;;;;;;;;;19.74;55.15;99748.88;1084604;54;19946;-78
2022/07/27 04:04:13;;;;;;;;;;;;;;;19.71;55.19;99745.75;1084859;54;20085;-79
2022/07/27 04:05:16;;;;;;;;;;;;;;;19.77;55.07;99748.44;1084276;54;19947;-78
2022/07/27 04:06:18;;;;;;;;;;;;;;;19.82;54.83;99752.41;1084161;54;20432;-79
2022/07/27 04:07:21;;;;;;;;;;;;;;;19.74;55.25;99751.59;1084054;54;20058;-78
2022/07/27 04:08:22;;;;;;;;;;;;;;;19.82;54.67;99749.72;1083660;54;19950;-78
2022/07/27 04:09:27;;;;;;;;;;;;;;;19.85;54.53;99742.00;1084325;54;19958;-78
2022/07/27 04:10:28;;;;;;;;;;;;;;;19.74;54.97;99745.34;1084667;54;19994;-78
2022/07/27 04:11:32;;;;;;;;;;;;;;;19.70;55.18;99739.50;1084889;54;19954;-78
2022/07/27 04:12:34;;;;;;;;;;;;;;;19.63;55.53;99744.94;1084589;54;20487;-78
2022/07/27 04:13:38;;;;;;;;;;;;;;;19.64;55.64;99745.78;1084709;54;19946;-77
2022/07/27 04:14:42;;;;;;;;;;;;;;;19.70;55.02;99744.94;1085451;39;20408;-78
2022/07/27 04:15:45;;;;;;;;;;;;;;;19.62;55.88;99747.88;1086077;54;19938;-79
2022/07/27 04:16:49;;;;;;;;;;;;;;;19.65;55.37;99744.72;1085680;54;19939;-78
2022/07/27 04:17:52;;;;;;;;;;;;;;;19.62;55.51;99748.69;1085521;54;19950;-79
2022/07/27 04:18:53;;;;;;;;;;;;;;;19.62;55.96;99747.88;1084744;54;19970;-78
2022/07/27 04:19:57;;;;;;;;;;;;;;;19.56;56.00;99751.41;1084142;54;19970;-78
2022/07/27 04:21:00;;;;;;;;;;;;;;;19.58;55.70;99739.34;1084755;54;19947;-79
2022/07/27 04:22:04;;;;;;;;;;;;;;;19.62;55.64;99737.03;1084822;47;20446;-79
2022/07/27 04:23:05;;;;;;;;;;;;;;;19.66;55.72;99738.25;1083962;54;19938;-79
2022/07/27 04:24:09;;;;;;;;;;;;;;;19.61;55.71;99746.19;1085049;54;19969;-79
2022/07/27 04:25:10;;;;;;;;;;;;;;;19.52;56.19;99742.88;1085312;54;19946;-79
2022/07/27 04:26:14;;;;;;;;;;;;;;;19.49;56.07;99746.03;1085688;47;19946;-80
2022/07/27 04:27:18;;;;;;;;;;;;;;;19.44;56.29;99746.66;1086677;54;19939;-79
2022/07/27 04:28:20;;;;;;;;;;;;;;;19.41;56.47;99748.97;1086907;54;19942;-79
2022/07/27 04:29:23;;;;;;;;;;;;;;;19.47;56.12;99751.63;1086880;54;20456;-79
2022/07/27 04:30:27;;;;;;;;;;;;;;;19.53;56.04;99746.44;1085807;47;19943;-79
2022/07/27 04:31:31;;;;;;;;;;;;;;;19.59;55.60;99757.28;1085642;54;19946;-79
2022/07/27 04:32:33;;;;;;;;;;;;;;;19.60;56.08;99755.38;1085977;46;19946;-79
2022/07/27 04:33:36;;;;;;;;;;;;;;;19.66;55.67;99756.41;1084896;54;20476;-80
2022/07/27 04:34:40;;;;;;;;;;;;;;;19.68;55.95;99757.03;1084453;54;19950;-80
2022/07/27 04:35:41;;;;;;;;;;;;;;;19.57;56.01;99764.78;1084982;54;19938;-79
2022/07/27 06:21:55;;;;;;;;;;;;;;;20.17;55.26;99856.03;1087085;39;21295;-79
2022/07/27 06:23:02;;;;;;;;;;;;;;;20.19;55.15;99845.81;1088011;54;19943;-78
2022/07/27 06:24:03;;;;;;;;;;;;;;;20.15;55.50;99849.19;1087936;54;20728;-83
2022/07/27 06:25:07;;;;;;;;;;;;;;;20.14;55.28;99858.34;1088079;54;20637;-81
2022/07/27 06:26:11;;;;;;;;;;;;;;;20.19;55.32;99842.28;1088788;46;19942;-84
2022/07/27 06:27:12;;;;;;;;;;;;;;;20.25;54.96;99841.44;1088069;54;19943;-80
2022/07/27 06:28:18;;;;;;;;;;;;;;;20.14;55.73;99850.22;1088000;54;21052;-82
2022/07/27 06:29:19;;;;;;;;;;;;;;;19.95;56.19;99847.34;1087987;54;19942;-83
2022/07/27 06:30:22;;;;;;;;;;;;;;;19.96;56.33;99840.88;1088029;54;19943;-82
2022/07/27 06:31:24;;;;;;;;;;;;;;;19.94;56.47;99851.09;1087873;54;19942;-79
2022/07/27 06:32:28;;;;;;;;;;;;;;;19.93;56.75;99844.03;1087966;54;19949;-81
2022/07/27 06:33:30;;;;;;;;;;;;;;;19.96;56.65;99840.88;1087941;54;20017;-81
2022/07/27 06:34:34;;;;;;;;;;;;;;;19.95;56.97;99842.75;1088041;54;19942;-81
2022/07/27 06:35:35;;;;;;;;;;;;;;;20.02;56.90;99842.75;1087931;54;19957;-82
2022/07/27 06:36:41;;;;;;;;;;;;;;;20.03;56.67;99841.69;1087970;54;20015;-81
2022/07/27 06:37:42;;;;;;;;;;;;;;;20.09;56.45;99846.28;1088038;54;20018;-82
2022/07/27 06:38:49;;;;;;;;;;;;;;;20.15;56.06;99849.19;1088566;46;19946;-82
2022/07/27 06:39:50;;;;;;;;;;;;;;;20.18;56.14;99840.63;1087939;54;20050;-81
2022/07/27 06:40:54;;;;;;;;;;;;;;;20.16;56.40;99853.56;1090469;39;20578;-83
2022/07/27 06:41:58;;;;;;;;;;;;;;;20.14;56.49;99852.94;1088047;54;19942;-83
2022/07/27 06:42:59;;;;;;;;;;;;;;;20.20;56.40;99843.97;1087994;54;19947;-81
2022/07/27 06:44:03;;;;;;;;;;;;;;;20.14;56.42;99847.50;1087856;54;19949;-82
2022/07/27 06:45:07;;;;;;;;;;;;;;;20.10;57.09;99837.09;1088028;54;19938;-82
2022/07/27 06:46:13;;;;;;;;;;;;;;;20.08;56.95;99846.47;1087802;54;19943;-81
2022/07/27 06:47:14;;;;;;;;;;;;;;;20.08;57.03;99846.47;1088991;46;19943;-78
2022/07/27 06:48:19;;;;;;;;;;;;;;;20.01;57.15;99851.09;1087793;54;19989;-82
2022/07/27 06:49:20;;;;;;;;;;;;;;;20.08;57.06;99847.31;1088024;54;19943;-80
2022/07/27 06:50:24;;;;;;;;;;;;;;;20.15;57.10;99839.16;1088428;54;19946;-80
2022/07/27 06:51:28;;;;;;;;;;;;;;;20.13;56.95;99843.97;1088308;54;19954;-81
2022/07/27 06:52:29;;;;;;;;;;;;;;;20.06;57.03;99843.97;1088408;54;20492;-80
2022/07/27 06:53:32;;;;;;;;;;;;;;;20.09;56.68;99845.44;1089565;46;19935;-80
2022/07/27 06:54:36;;;;;;;;;;;;;;;20.18;56.55;99837.91;1088399;54;20764;-83
2022/07/27 06:55:40;;;;;;;;;;;;;;;20.25;56.52;99838.72;1088323;54;19943;-81
2022/07/27 06:56:41;;;;;;;;;;;;;;;20.28;56.59;99838.28;1088339;54;19943;-80
2022/07/27 06:57:45;;;;;;;;;;;;;;;20.34;56.31;99837.44;1088078;54;19961;-82
2022/07/27 06:58:47;;;;;;;;;;;;;;;20.39;55.83;99843.06;1088310;54;19927;-82
2022/07/27 06:59:51;;;;;;;;;;;;;;;20.45;56.05;99838.63;1089044;39;20517;-82
2022/07/27 07:00:52;;;;;;;;;;;;;;;20.61;55.88;99837.31;1088310;46;19951;-81
2022/07/27 07:01:56;;;;;;;;;;;;;;;20.56;55.71;99835.25;1088284;54;20615;-82
2022/07/27 07:03:01;;;;;;;;;;;;;;;20.62;55.73;99836.28;1088322;54;19950;-81
2022/07/27 07:04:05;;;;;;;;;;;;;;;20.76;55.25;99828.09;1088482;54;19927;-81
2022/07/27 07:05:10;;;;;;;;;;;;;;;20.89;54.84;99825.28;1087829;54;20037;-79
2022/07/27 07:06:11;;;;;;;;;;;;;;;20.93;54.47;99833.84;1087872;54;19954;-81
2022/07/27 07:07:17;;;;;;;;;;;;;;;20.92;54.53;99833.00;1088068;54;19946;-83
2022/07/27 07:08:18;;;;;;;;;;;;;;;21.02;54.97;99830.66;1088396;54;19947;-79
2022/07/27 07:09:21;;;;;;;;;;;;;;;21.03;54.34;99824.16;1088505;46;20464;-79
2022/07/27 07:10:26;;;;;;;;;;;;;;;21.11;54.54;99819.50;1088371;54;19934;-82
2022/07/27 07:11:29;;;;;;;;;;;;;;;21.23;54.04;99831.34;1088146;54;19927;-82
2022/07/27 07:12:30;;;;;;;;;;;;;;;21.15;53.84;99827.00;1088375;54;20548;-80
2022/07/27 07:13:34;;;;;;;;;;;;;;;21.07;53.77;99829.16;1088378;54;19938;-82
2022/07/27 07:14:35;;;;;;;;;;;;;;;21.17;54.27;99824.06;1088934;46;19942;-80
2022/07/27 07:15:40;;;;;;;;;;;;;;;21.06;53.94;99827.50;1088314;54;20021;-80
2022/07/27 07:16:41;;;;;;;;;;;;;;;20.94;53.98;99827.34;1088784;39;20416;-81
2022/07/27 07:17:45;;;;;;;;;;;;;;;20.84;54.46;99831.38;1088186;54;20017;-81